createdAt,value
2022-07-31T00:00:23.844Z,3.67
2022-07-31T00:02:51.632Z,3.38
2022-07-31T00:05:19.367Z,3.45
2022-07-31T00:07:47.144Z,5.63
2022-07-31T00:10:14.886Z,3.67
2022-07-31T00:12:43.948Z,4.22
2022-07-31T00:15:12.626Z,5.10
2022-07-31T00:17:43.506Z,4.30
2022-07-31T00:20:13.402Z,3.20
2022-07-31T00:27:28.881Z,3.50
2022-07-31T00:29:57.947Z,3.25
2022-07-31T00:32:25.650Z,3.58
2022-07-31T00:34:53.384Z,3.50
2022-07-31T00:37:21.260Z,3.70
2022-07-31T00:39:49.463Z,3.28
2022-07-31T00:42:20.376Z,3.40
2022-07-31T00:44:48.530Z,3.70
2022-07-31T00:47:17.733Z,3.20
2022-07-31T00:49:51.801Z,3.15
2022-07-31T00:52:19.519Z,4.05
2022-07-31T00:54:47.260Z,4.57
2022-07-31T00:57:15.286Z,3.10
2022-07-31T00:59:43.734Z,4.47
2022-07-31T01:02:11.580Z,4.30
2022-07-31T01:04:41.632Z,3.10
2022-07-31T01:07:09.466Z,4.18
2022-07-31T01:09:37.239Z,4.70
2022-07-31T01:12:08.425Z,3.00
2022-07-31T01:14:38.433Z,4.25
2022-07-31T01:19:37.913Z,4.28
2022-07-31T01:22:33.554Z,3.55
2022-07-31T01:25:07.016Z,4.18
2022-07-31T01:27:54.063Z,4.07
2022-07-31T01:30:26.578Z,5.45
2022-07-31T01:32:57.972Z,2.90
2022-07-31T01:35:28.167Z,5.15
2022-07-31T01:37:57.704Z,4.13
2022-07-31T01:40:29.189Z,4.13
2022-07-31T01:42:59.206Z,4.50
2022-07-31T01:45:28.661Z,4.38
2022-07-31T01:47:56.409Z,4.93
2022-07-31T01:50:42.176Z,4.43
2022-07-31T01:53:12.847Z,4.07
2022-07-31T01:56:00.916Z,3.70
2022-07-31T01:58:29.204Z,3.83
2022-07-31T02:00:59.630Z,2.90
2022-07-31T02:03:43.921Z,3.40
2022-07-31T02:06:13.727Z,3.17
2022-07-31T02:08:41.429Z,4.20
2022-07-31T02:11:09.159Z,3.47
2022-07-31T02:13:36.992Z,3.30
2022-07-31T02:16:06.222Z,3.30
2022-07-31T02:18:33.911Z,4.37
2022-07-31T02:21:01.639Z,4.88
2022-07-31T02:23:29.335Z,3.30
2022-07-31T02:25:57.068Z,3.75
2022-07-31T02:28:24.774Z,3.70
2022-07-31T02:30:52.507Z,3.58
2022-07-31T02:33:22.652Z,3.40
2022-07-31T02:35:50.945Z,3.50
2022-07-31T02:38:22.909Z,3.30
2022-07-31T02:40:51.685Z,4.88
2022-07-31T02:43:19.469Z,3.50
2022-07-31T02:45:47.208Z,5.60
2022-07-31T02:48:14.907Z,3.00
2022-07-31T02:50:43.987Z,4.32
2022-07-31T02:53:11.693Z,3.20
2022-07-31T02:55:39.441Z,3.15
2022-07-31T02:58:07.175Z,3.90
2022-07-31T03:00:35.015Z,3.85
2022-07-31T03:03:02.931Z,5.05
2022-07-31T03:05:31.354Z,3.25
2022-07-31T03:08:00.453Z,4.35
2022-07-31T03:10:28.303Z,3.67
2022-07-31T03:12:56.008Z,3.83
2022-07-31T03:15:25.815Z,3.60
2022-07-31T03:17:53.532Z,5.85
2022-07-31T03:20:21.251Z,6.55
2022-07-31T03:22:48.948Z,3.58
2022-07-31T03:25:21.120Z,5.13
2022-07-31T03:27:55.628Z,4.68
2022-07-31T03:30:25.783Z,4.07
2022-07-31T03:32:53.508Z,3.50
2022-07-31T03:35:21.234Z,4.40
2022-07-31T03:37:49.579Z,3.35
2022-07-31T03:40:18.690Z,3.40
2022-07-31T03:42:46.401Z,3.60
2022-07-31T03:45:14.126Z,3.45
2022-07-31T03:47:41.838Z,3.90
2022-07-31T03:50:09.681Z,3.85
2022-07-31T03:52:37.387Z,3.38
2022-07-31T03:55:05.376Z,4.18
2022-07-31T03:57:34.862Z,3.20
2022-07-31T04:00:03.117Z,4.10
2022-07-31T04:02:31.821Z,4.72
2022-07-31T04:05:00.306Z,3.08
2022-07-31T04:07:28.323Z,3.83
2022-07-31T04:09:56.057Z,3.55
2022-07-31T04:12:23.778Z,4.70
2022-07-31T04:14:52.820Z,3.70
2022-07-31T04:17:20.540Z,3.47
2022-07-31T04:19:49.585Z,3.42
2022-07-31T04:22:17.335Z,4.00
2022-07-31T04:24:45.766Z,5.03
2022-07-31T04:27:13.508Z,3.30
2022-07-31T04:29:41.199Z,5.95
2022-07-31T04:32:11.079Z,5.10
2022-07-31T04:34:38.884Z,3.85
2022-07-31T04:37:06.632Z,3.40
2022-07-31T04:39:34.384Z,3.78
2022-07-31T04:42:02.591Z,3.38
2022-07-31T04:44:31.243Z,3.95
2022-07-31T04:47:02.392Z,4.32
2022-07-31T04:49:32.339Z,3.25
2022-07-31T04:52:00.343Z,3.83
2022-07-31T04:54:29.799Z,3.90
2022-07-31T04:56:57.530Z,3.30
2022-07-31T04:59:58.534Z,3.17
2022-07-31T05:02:13.073Z,3.20
2022-07-31T05:04:42.161Z,4.07
2022-07-31T05:07:09.886Z,4.28
2022-07-31T05:09:37.822Z,3.58
2022-07-31T05:12:06.624Z,4.35
2022-07-31T05:14:34.778Z,4.00
2022-07-31T05:17:02.540Z,3.60
2022-07-31T05:19:30.935Z,4.00
2022-07-31T05:22:02.404Z,3.20
2022-07-31T05:24:33.531Z,3.70
2022-07-31T05:27:01.877Z,3.80
2022-07-31T05:29:29.623Z,4.65
2022-07-31T05:31:59.308Z,4.00
2022-07-31T05:34:29.937Z,4.38
2022-07-31T05:36:58.173Z,3.22
2022-07-31T05:39:28.214Z,3.38
2022-07-31T05:44:23.450Z,3.22
2022-07-31T05:49:18.353Z,3.53
2022-07-31T05:51:46.780Z,3.40
2022-07-31T05:54:14.749Z,4.30
2022-07-31T05:56:43.825Z,3.22
2022-07-31T05:59:11.524Z,3.65
2022-07-31T06:01:39.295Z,3.35
2022-07-31T06:04:07.049Z,3.08
2022-07-31T06:06:34.848Z,3.00
2022-07-31T06:09:04.801Z,3.50
2022-07-31T06:11:32.856Z,3.45
2022-07-31T06:14:01.921Z,3.47
2022-07-31T06:16:29.659Z,3.25
2022-07-31T06:18:57.368Z,3.78
2022-07-31T06:21:30.123Z,3.10
2022-07-31T06:23:58.419Z,4.43
2022-07-31T06:26:26.825Z,3.15
2022-07-31T06:28:55.465Z,4.18
2022-07-31T06:31:24.675Z,3.10
2022-07-31T06:33:52.783Z,3.90
2022-07-31T06:36:20.691Z,3.10
2022-07-31T06:38:48.478Z,3.50
2022-07-31T06:41:36.549Z,3.13
2022-07-31T06:44:04.940Z,3.10
2022-07-31T06:46:34.051Z,3.20
2022-07-31T06:49:05.560Z,3.00
2022-07-31T06:51:36.214Z,3.55
2022-07-31T06:54:04.645Z,3.85
2022-07-31T06:56:32.790Z,3.22
2022-07-31T06:59:00.537Z,3.45
2022-07-31T07:01:28.468Z,3.53
2022-07-31T07:03:57.601Z,3.53
2022-07-31T07:06:25.485Z,3.28
2022-07-31T07:08:53.458Z,2.90
2022-07-31T07:11:21.391Z,3.33
2022-07-31T07:13:49.486Z,3.00
2022-07-31T07:16:17.243Z,2.72
2022-07-31T07:18:44.972Z,2.92
2022-07-31T07:21:14.050Z,2.92
2022-07-31T07:23:41.785Z,3.45
2022-07-31T07:26:09.541Z,3.38
2022-07-31T07:28:37.256Z,2.90
2022-07-31T07:31:05.035Z,3.10
2022-07-31T07:33:41.813Z,3.83
2022-07-31T07:36:23.483Z,2.92
2022-07-31T07:38:55.251Z,3.17
2022-07-31T07:41:24.109Z,3.20
2022-07-31T07:43:52.557Z,2.90
2022-07-31T07:46:21.251Z,3.08
2022-07-31T07:48:50.765Z,3.17
2022-07-31T07:51:18.567Z,3.47
2022-07-31T07:53:46.280Z,3.05
2022-07-31T07:56:15.357Z,3.22
2022-07-31T07:58:43.120Z,2.95
2022-07-31T08:01:10.950Z,2.97
2022-07-31T08:03:51.130Z,3.25
2022-07-31T08:06:21.017Z,3.25
2022-07-31T08:08:48.841Z,3.10
2022-07-31T08:11:18.238Z,3.15
2022-07-31T08:13:51.209Z,2.97
2022-07-31T08:16:20.316Z,2.80
2022-07-31T08:18:48.100Z,3.72
2022-07-31T08:21:15.904Z,3.25
2022-07-31T08:23:43.612Z,3.15
2022-07-31T08:26:11.455Z,2.90
2022-07-31T08:28:40.726Z,2.70
2022-07-31T08:31:09.236Z,3.63
2022-07-31T08:33:37.087Z,3.22
2022-07-31T08:36:08.979Z,3.10
2022-07-31T08:38:36.895Z,2.72
2022-07-31T08:41:04.758Z,2.85
2022-07-31T08:44:00.526Z,3.42
2022-07-31T08:46:21.727Z,2.80
2022-07-31T08:48:49.458Z,2.67
2022-07-31T08:51:17.215Z,3.13
2022-07-31T08:53:44.969Z,2.83
2022-07-31T08:56:12.721Z,2.88
2022-07-31T08:58:40.456Z,2.50
2022-07-31T09:01:08.944Z,2.70
2022-07-31T09:03:38.590Z,3.40
2022-07-31T09:06:06.462Z,2.58
2022-07-31T09:08:34.251Z,3.05
2022-07-31T09:11:05.950Z,2.90
2022-07-31T09:13:34.808Z,2.63
2022-07-31T09:16:02.811Z,2.70
2022-07-31T09:18:30.552Z,2.67
2022-07-31T09:21:00.557Z,3.15
2022-07-31T09:23:30.077Z,2.67
2022-07-31T09:25:59.577Z,2.60
2022-07-31T09:28:34.547Z,3.13
2022-07-31T09:31:02.506Z,2.50
2022-07-31T09:33:30.631Z,2.97
2022-07-31T09:36:00.235Z,2.33
2022-07-31T09:38:32.444Z,2.70
2022-07-31T09:41:26.781Z,2.60
2022-07-31T09:43:59.722Z,2.55
2022-07-31T09:46:27.670Z,2.58
2022-07-31T09:49:00.190Z,2.80
2022-07-31T09:51:38.999Z,2.50
2022-07-31T09:54:06.878Z,3.53
2022-07-31T09:56:34.867Z,2.22
2022-07-31T09:59:02.927Z,2.22
2022-07-31T10:01:30.745Z,2.50
2022-07-31T10:04:00.059Z,2.50
2022-07-31T10:06:29.321Z,2.35
2022-07-31T10:08:57.035Z,2.90
2022-07-31T10:11:24.801Z,2.65
2022-07-31T10:13:52.567Z,2.40
2022-07-31T10:16:22.384Z,2.67
2022-07-31T10:18:53.491Z,2.88
2022-07-31T10:21:21.237Z,2.67
2022-07-31T10:23:50.278Z,2.65
2022-07-31T10:26:18.009Z,2.50
2022-07-31T10:28:45.767Z,2.13
2022-07-31T10:31:13.597Z,2.35
2022-07-31T10:33:44.105Z,2.53
2022-07-31T10:36:14.954Z,2.40
2022-07-31T10:38:44.743Z,2.72
2022-07-31T10:41:18.959Z,2.63
2022-07-31T10:43:47.978Z,2.53
2022-07-31T10:46:15.715Z,2.60
2022-07-31T10:48:52.219Z,2.85
2022-07-31T10:51:22.400Z,3.15
2022-07-31T10:53:56.895Z,2.10
2022-07-31T10:56:27.659Z,2.45
2022-07-31T10:58:56.624Z,2.57
2022-07-31T11:01:25.913Z,2.25
2022-07-31T11:03:54.949Z,2.88
2022-07-31T11:06:24.728Z,2.55
2022-07-31T11:08:53.231Z,2.55
2022-07-31T11:11:33.450Z,2.17
2022-07-31T11:14:01.176Z,2.40
2022-07-31T11:16:29.043Z,2.40
2022-07-31T11:19:00.120Z,2.47
2022-07-31T11:21:38.948Z,2.75
2022-07-31T11:24:14.332Z,2.30
2022-07-31T11:26:51.586Z,2.30
2022-07-31T11:30:01.810Z,2.42
2022-07-31T11:32:22.883Z,2.63
2022-07-31T11:34:54.129Z,2.30
2022-07-31T11:37:23.543Z,2.40
2022-07-31T11:39:52.734Z,2.33
2022-07-31T11:42:26.479Z,3.53
2022-07-31T11:45:10.900Z,2.50
2022-07-31T11:48:10.211Z,3.08
2022-07-31T11:50:30.870Z,2.58
2022-07-31T11:53:03.785Z,2.42
2022-07-31T11:55:31.644Z,2.45
2022-07-31T11:58:00.705Z,2.67
2022-07-31T12:00:30.233Z,2.17
2022-07-31T12:02:58.505Z,2.15
2022-07-31T12:05:38.404Z,2.40
2022-07-31T12:08:07.113Z,2.08
2022-07-31T12:10:34.874Z,2.00
2022-07-31T12:13:03.970Z,2.55
2022-07-31T12:15:31.722Z,2.57
2022-07-31T12:18:01.356Z,2.72
2022-07-31T12:20:36.011Z,2.40
2022-07-31T12:23:05.698Z,2.72
2022-07-31T12:25:43.381Z,2.60
2022-07-31T12:28:14.320Z,3.15
2022-07-31T12:30:42.165Z,2.40
2022-07-31T12:33:10.475Z,3.63
2022-07-31T12:35:55.295Z,2.60
2022-07-31T12:38:45.028Z,2.50
2022-07-31T12:41:13.502Z,2.28
2022-07-31T12:43:51.557Z,4.03
2022-07-31T12:46:23.567Z,2.60
2022-07-31T12:48:51.941Z,2.63
2022-07-31T12:51:45.695Z,2.40
2022-07-31T12:54:09.073Z,2.13
2022-07-31T12:56:36.925Z,2.30
2022-07-31T12:59:06.109Z,2.55
2022-07-31T13:01:33.911Z,2.50
2022-07-31T13:04:03.257Z,2.97
2022-07-31T13:06:31.317Z,2.40
2022-07-31T13:08:59.055Z,2.45
2022-07-31T13:11:28.959Z,2.50
2022-07-31T13:13:58.290Z,2.50
2022-07-31T13:16:27.516Z,2.75
2022-07-31T13:18:55.221Z,2.10
2022-07-31T13:21:22.981Z,2.45
2022-07-31T13:23:55.705Z,2.38
2022-07-31T13:26:23.827Z,2.60
2022-07-31T13:28:51.543Z,2.13
2022-07-31T13:31:19.282Z,2.60
2022-07-31T13:33:48.388Z,2.40
2022-07-31T13:36:16.116Z,2.63
2022-07-31T13:38:43.857Z,2.67
2022-07-31T13:41:25.059Z,2.53
2022-07-31T13:43:59.716Z,2.63
2022-07-31T13:46:28.438Z,2.53
2022-07-31T13:48:59.426Z,2.85
2022-07-31T13:51:28.785Z,2.50
2022-07-31T13:53:56.894Z,2.45
2022-07-31T13:56:36.851Z,2.53
2022-07-31T13:59:11.678Z,2.47
2022-07-31T14:02:02.943Z,2.58
2022-07-31T14:04:32.241Z,2.40
2022-07-31T14:07:01.131Z,2.58
2022-07-31T14:09:28.974Z,2.40
2022-07-31T14:11:57.076Z,2.30
2022-07-31T14:14:24.778Z,2.55
2022-07-31T14:16:52.510Z,2.25
2022-07-31T14:19:20.931Z,2.15
2022-07-31T14:21:57.107Z,2.40
2022-07-31T14:24:25.063Z,2.28
2022-07-31T14:26:52.834Z,2.50
2022-07-31T14:29:20.571Z,2.10
2022-07-31T14:31:48.318Z,2.63
2022-07-31T14:34:16.034Z,2.30
2022-07-31T14:36:43.839Z,2.13
2022-07-31T14:39:12.897Z,2.63
2022-07-31T14:41:40.622Z,2.55
2022-07-31T14:44:08.312Z,2.58
2022-07-31T14:46:36.035Z,2.13
2022-07-31T14:49:04.672Z,2.55
2022-07-31T14:51:32.483Z,2.13
2022-07-31T14:54:00.647Z,2.03
2022-07-31T14:56:58.589Z,2.45
2022-07-31T14:59:17.474Z,2.38
2022-07-31T15:01:45.235Z,2.30
2022-07-31T15:04:13.003Z,2.25
2022-07-31T15:06:55.948Z,2.08
2022-07-31T15:09:26.949Z,2.10
2022-07-31T15:12:01.091Z,1.98
2022-07-31T15:14:29.487Z,3.05
2022-07-31T15:16:57.245Z,2.13
2022-07-31T15:19:24.978Z,2.00
2022-07-31T15:22:10.989Z,1.85
2022-07-31T15:24:48.454Z,1.95
2022-07-31T15:27:18.910Z,2.00
2022-07-31T15:30:04.087Z,2.25
2022-07-31T15:32:34.474Z,1.80
2022-07-31T15:35:02.287Z,1.90
2022-07-31T15:37:30.343Z,2.20
2022-07-31T15:40:02.292Z,2.10
2022-07-31T15:42:32.850Z,2.05
2022-07-31T15:45:00.545Z,1.92
2022-07-31T15:47:28.304Z,1.90
2022-07-31T15:49:56.118Z,1.90
2022-07-31T15:52:23.865Z,2.05
2022-07-31T15:54:52.601Z,1.80
2022-07-31T15:57:20.716Z,2.00
2022-07-31T15:59:49.901Z,2.13
2022-07-31T16:02:17.658Z,2.03
2022-07-31T16:04:52.732Z,2.55
2022-07-31T16:08:28.664Z,2.00
2022-07-31T16:10:15.265Z,2.40
2022-07-31T16:12:45.291Z,1.70
2022-07-31T16:15:14.375Z,2.20
2022-07-31T16:17:42.083Z,1.90
2022-07-31T16:20:11.088Z,2.17
2022-07-31T16:22:39.073Z,2.33
2022-07-31T16:25:08.639Z,1.95
2022-07-31T16:27:36.412Z,2.20
2022-07-31T16:30:04.470Z,2.30
2022-07-31T16:32:33.623Z,1.95
2022-07-31T16:35:01.808Z,2.40
2022-07-31T16:37:51.234Z,3.13
2022-07-31T16:40:31.032Z,2.03
2022-07-31T16:43:01.736Z,1.73
2022-07-31T16:45:30.079Z,2.00
2022-07-31T16:47:59.175Z,2.30
2022-07-31T16:50:27.305Z,2.10
2022-07-31T16:52:55.470Z,2.17
2022-07-31T16:55:53.105Z,2.03
2022-07-31T16:58:12.140Z,2.30
2022-07-31T17:00:40.235Z,1.92
2022-07-31T17:03:31.080Z,2.22
2022-07-31T17:05:57.167Z,1.95
2022-07-31T17:08:24.886Z,2.15
2022-07-31T17:10:54.658Z,2.17
2022-07-31T17:13:22.730Z,1.92
2022-07-31T17:15:50.478Z,2.00
2022-07-31T17:18:24.911Z,2.47
2022-07-31T17:20:53.149Z,2.30
2022-07-31T17:23:42.641Z,2.40
2022-07-31T17:26:21.542Z,2.10
2022-07-31T17:28:50.249Z,2.13
2022-07-31T17:31:18.106Z,2.20
2022-07-31T17:33:59.530Z,2.47
2022-07-31T17:36:29.319Z,2.78
2022-07-31T17:38:57.177Z,2.17
2022-07-31T17:41:26.057Z,2.15
2022-07-31T17:43:54.345Z,2.13
2022-07-31T17:46:34.233Z,2.25
2022-07-31T17:49:08.174Z,2.10
2022-07-31T17:51:36.084Z,2.10
2022-07-31T17:54:03.997Z,2.00
2022-07-31T17:56:31.796Z,2.53
2022-07-31T17:59:04.505Z,2.30
2022-07-31T18:01:33.261Z,2.42
2022-07-31T18:04:01.051Z,2.03
2022-07-31T18:06:30.248Z,2.10
2022-07-31T18:08:58.094Z,2.08
2022-07-31T18:11:26.063Z,2.20
2022-07-31T18:13:54.169Z,2.60
2022-07-31T18:16:24.746Z,2.13
2022-07-31T18:18:54.517Z,2.53
2022-07-31T18:23:51.330Z,2.55
2022-07-31T18:26:19.074Z,2.30
2022-07-31T18:28:46.804Z,2.35
2022-07-31T18:31:34.042Z,2.60
2022-07-31T18:34:02.750Z,1.90
2022-07-31T18:36:30.565Z,2.25
2022-07-31T18:38:59.631Z,2.40
2022-07-31T18:41:27.525Z,2.20
2022-07-31T18:43:55.223Z,2.10
2022-07-31T18:46:23.831Z,2.30
2022-07-31T18:48:55.421Z,2.03
2022-07-31T18:51:24.021Z,2.10
2022-07-31T18:53:51.851Z,2.40
2022-07-31T18:56:23.917Z,2.40
2022-07-31T18:58:51.832Z,2.25
2022-07-31T19:01:19.634Z,3.55
2022-07-31T19:03:47.426Z,2.58
2022-07-31T19:06:15.193Z,2.10
2022-07-31T19:08:42.891Z,2.35
2022-07-31T19:11:11.733Z,2.40
2022-07-31T19:13:40.762Z,2.38
2022-07-31T19:16:08.563Z,2.20
2022-07-31T19:18:37.675Z,2.78
2022-07-31T19:21:22.967Z,2.50
2022-07-31T19:23:53.760Z,2.75
2022-07-31T19:26:21.483Z,2.50
2022-07-31T19:28:51.203Z,2.72
2022-07-31T19:31:18.959Z,2.22
2022-07-31T19:33:46.678Z,2.38
2022-07-31T19:36:15.388Z,2.60
2022-07-31T19:38:44.328Z,2.65
2022-07-31T19:41:12.359Z,3.70
2022-07-31T19:43:40.070Z,4.65
2022-07-31T19:46:11.937Z,2.95
2022-07-31T19:48:41.649Z,4.05
2022-07-31T19:51:09.560Z,2.60
2022-07-31T19:53:37.391Z,2.45
2022-07-31T19:56:06.440Z,3.53
2022-07-31T19:58:34.820Z,3.63
2022-07-31T20:01:03.131Z,2.85
2022-07-31T20:03:32.419Z,2.70
2022-07-31T20:06:00.386Z,2.80
2022-07-31T20:08:29.788Z,3.33
2022-07-31T20:11:03.341Z,3.25
2022-07-31T20:13:31.672Z,2.95
2022-07-31T20:15:59.401Z,2.60
2022-07-31T20:18:30.584Z,3.80
2022-07-31T20:21:00.372Z,2.80
2022-07-31T20:23:28.096Z,3.15
2022-07-31T20:25:55.899Z,3.35
2022-07-31T20:28:23.640Z,2.80
2022-07-31T20:30:51.523Z,2.80
2022-07-31T20:33:19.235Z,3.03
2022-07-31T20:35:48.671Z,2.85
2022-07-31T20:38:18.913Z,3.00
2022-07-31T20:40:53.420Z,3.47
2022-07-31T20:43:21.925Z,3.13
2022-07-31T20:45:49.685Z,2.83
2022-07-31T20:48:17.794Z,4.68
2022-07-31T20:50:48.253Z,2.60
2022-07-31T20:53:16.307Z,6.28
2022-07-31T20:55:46.995Z,2.97
2022-07-31T20:58:14.902Z,2.83
2022-07-31T21:00:42.620Z,3.58
2022-07-31T21:03:10.389Z,2.80
2022-07-31T21:05:38.100Z,2.85
2022-07-31T21:08:05.984Z,2.70
2022-07-31T21:10:34.156Z,2.72
2022-07-31T21:13:03.232Z,3.20
2022-07-31T21:15:43.358Z,3.20
2022-07-31T21:18:12.375Z,3.22
2022-07-31T21:20:50.313Z,3.13
2022-07-31T21:23:20.449Z,3.00
2022-07-31T21:25:48.427Z,2.80
2022-07-31T21:28:18.080Z,3.25
2022-07-31T21:30:46.073Z,3.03
2022-07-31T21:33:14.068Z,2.58
2022-07-31T21:35:42.216Z,3.05
2022-07-31T21:38:11.799Z,3.15
2022-07-31T21:40:40.391Z,3.08
2022-07-31T21:43:08.666Z,3.55
2022-07-31T21:45:55.797Z,3.08
2022-07-31T21:48:26.902Z,2.92
2022-07-31T21:50:54.920Z,2.40
2022-07-31T21:53:22.710Z,3.33
2022-07-31T21:55:50.453Z,4.57
2022-07-31T21:58:18.282Z,2.63
2022-07-31T22:00:47.541Z,2.67
2022-07-31T22:03:15.404Z,2.65
2022-07-31T22:06:00.776Z,2.88
2022-07-31T22:08:28.511Z,2.55
2022-07-31T22:10:56.264Z,2.40
2022-07-31T22:13:24.039Z,2.75
2022-07-31T22:16:00.290Z,2.67
2022-07-31T22:18:28.996Z,2.50
2022-07-31T22:20:57.378Z,2.53
2022-07-31T22:23:25.403Z,2.50
2022-07-31T22:25:53.304Z,2.60
2022-07-31T22:28:21.871Z,2.40
2022-07-31T22:30:50.818Z,2.40
2022-07-31T22:33:20.107Z,2.20
2022-07-31T22:35:59.156Z,2.33
2022-07-31T22:38:28.517Z,2.50
2022-07-31T22:40:56.384Z,3.15
2022-07-31T22:44:09.373Z,2.60
2022-07-31T22:46:12.847Z,3.05
2022-07-31T22:48:42.095Z,2.95
2022-07-31T22:51:12.818Z,2.53
2022-07-31T22:53:42.813Z,2.47
2022-07-31T22:56:10.547Z,2.30
2022-07-31T22:58:38.268Z,2.60
2022-07-31T23:01:06.030Z,2.42
2022-07-31T23:03:33.746Z,2.30
2022-07-31T23:06:30.723Z,2.30
2022-07-31T23:08:53.841Z,2.37
2022-07-31T23:11:23.358Z,1.92
2022-07-31T23:13:51.286Z,3.38
2022-07-31T23:16:20.282Z,2.13
2022-07-31T23:18:48.117Z,4.07
2022-07-31T23:21:17.194Z,2.40
2022-07-31T23:23:48.829Z,3.53
2022-07-31T23:26:17.699Z,2.50
2022-07-31T23:28:45.403Z,2.30
2022-07-31T23:31:13.132Z,2.50
2022-07-31T23:33:40.999Z,2.45
2022-07-31T23:36:08.825Z,3.45
2022-07-31T23:38:37.919Z,2.58
2022-07-31T23:41:05.703Z,2.60
2022-07-31T23:43:32.471Z,2.25
2022-07-31T23:46:00.239Z,2.35
2022-07-31T23:48:30.019Z,2.50
2022-07-31T23:50:58.078Z,2.47
2022-07-31T23:53:25.822Z,3.28
2022-07-31T23:55:54.939Z,2.58
2022-07-31T23:58:22.693Z,2.60
